Time;durP1;ratioP1;P1;durP2;ratioP2;P2;SDS_P1;SDS_P2;PMS_P1;PMS_P2;Temp;Humidity;BMP_temperature;BMP_pressure;BME280_temperature;BME280_humidity;BME280_pressure;Samples;Min_cycle;Max_cycle;Signal;HPM_P1;HPM_P2
2022/06/07 00:00:13;;;;;;;;;;;;;;;18.05;56.58;97900.59;5092576;28;20339;-51
2022/06/07 00:03:03;;;;;;;;;;;;;;;18.04;56.73;97901.75;5098430;28;20407;-54
2022/06/07 00:05:51;;;;;;;;;;;;;;;17.98;56.74;97904.00;5097387;28;20362;-54
2022/06/07 00:09:05;;;;;;;;;;;;;;;17.93;56.57;97903.50;5101121;28;19919;-54
2022/06/07 00:11:54;;;;;;;;;;;;;;;17.91;56.59;97909.34;5100155;28;19967;-54
2022/06/07 00:14:42;;;;;;;;;;;;;;;17.90;56.57;97907.75;5102776;28;20449;-53
2022/06/07 00:17:32;;;;;;;;;;;;;;;17.92;56.65;97907.41;5090920;28;19920;-53
2022/06/07 00:20:21;;;;;;;;;;;;;;;17.89;56.70;97899.88;5094982;28;20268;-53
2022/06/07 00:23:11;;;;;;;;;;;;;;;17.86;56.89;97903.34;5096173;28;20092;-53
2022/06/07 00:25:59;;;;;;;;;;;;;;;17.86;56.81;97909.63;5100456;28;20366;-53
2022/06/07 00:28:47;;;;;;;;;;;;;;;17.80;57.05;97908.31;5092555;28;19997;-52
2022/06/07 00:31:36;;;;;;;;;;;;;;;17.77;57.00;97898.03;5100189;28;20019;-51
2022/06/07 00:34:26;;;;;;;;;;;;;;;17.73;57.05;97886.16;5098014;28;20331;-54
2022/06/07 00:37:39;;;;;;;;;;;;;;;17.71;57.23;97889.25;5096754;28;19919;-52
2022/06/07 00:40:28;;;;;;;;;;;;;;;17.70;57.21;97881.38;5099731;28;19986;-53
2022/06/07 00:43:16;;;;;;;;;;;;;;;17.66;57.53;97878.53;5078477;28;19928;-53
2022/06/07 00:46:14;;;;;;;;;;;;;;;17.64;57.59;97882.81;5093711;28;19928;-53
2022/06/07 00:49:06;;;;;;;;;;;;;;;17.60;57.57;97888.22;5083643;28;20381;-53
2022/06/07 00:51:56;;;;;;;;;;;;;;;17.62;57.84;97885.09;5080768;28;19927;-54
2022/06/07 00:54:45;;;;;;;;;;;;;;;17.62;57.63;97885.09;5097756;28;19924;-52
2022/06/07 01:01:15;;;;;;;;;;;;;;;17.51;57.97;97885.66;5077540;28;19951;-52
2022/06/07 01:04:08;;;;;;;;;;;;;;;17.53;57.87;97883.38;5094017;28;20318;-52
2022/06/07 01:13:17;;;;;;;;;;;;;;;17.40;58.31;97881.06;5097591;28;20002;-53
2022/06/07 01:16:15;;;;;;;;;;;;;;;17.38;58.97;97892.41;5092156;28;20275;-51
2022/06/07 01:19:07;;;;;;;;;;;;;;;17.33;58.74;97884.44;5091714;28;19927;-52
2022/06/07 01:22:01;;;;;;;;;;;;;;;17.30;59.05;97890.66;5082436;28;19949;-54
2022/06/07 01:24:49;;;;;;;;;;;;;;;17.27;59.06;97894.91;5097275;28;20031;-54
2022/06/07 01:27:38;;;;;;;;;;;;;;;17.37;59.27;97898.28;5097243;28;19927;-53
2022/06/07 01:30:27;;;;;;;;;;;;;;;17.59;59.26;97914.09;5090976;28;19923;-52
2022/06/07 01:33:16;;;;;;;;;;;;;;;17.41;58.86;97902.69;5094894;28;20396;-54
2022/06/07 01:36:13;;;;;;;;;;;;;;;17.44;59.08;97912.16;5094256;28;20426;-53
2022/06/07 01:42:34;;;;;;;;;;;;;;;17.38;58.98;97903.41;5073333;28;19927;-53
2022/06/07 01:45:23;;;;;;;;;;;;;;;17.36;59.37;97904.91;5072632;28;19927;-49
2022/06/07 01:48:11;;;;;;;;;;;;;;;17.35;59.97;97897.81;5074767;28;19954;-53
2022/06/07 01:51:01;;;;;;;;;;;;;;;17.39;59.32;97899.50;5075962;28;20427;-53
2022/06/07 01:53:51;;;;;;;;;;;;;;;17.29;59.12;97889.84;5062048;28;20328;-52
2022/06/07 01:56:40;;;;;;;;;;;;;;;17.41;59.18;97891.69;5072285;28;19938;-54
2022/06/07 01:59:30;;;;;;;;;;;;;;;17.28;59.10;97888.25;5073787;28;19920;-53
2022/06/07 02:02:18;;;;;;;;;;;;;;;17.27;59.13;97885.88;5066760;28;19925;-53
2022/06/07 02:05:13;;;;;;;;;;;;;;;17.23;59.25;97890.47;5067960;28;19924;-53
2022/06/07 02:08:07;;;;;;;;;;;;;;;17.21;59.04;97892.78;5070830;28;20438;-53
2022/06/07 02:11:05;;;;;;;;;;;;;;;17.15;59.27;97894.19;5072176;28;20665;-54
2022/06/07 02:14:44;;;;;;;;;;;;;;;17.13;59.21;97886.31;5081093;28;19967;-52
2022/06/07 02:17:32;;;;;;;;;;;;;;;17.10;59.48;97887.06;5075484;28;20013;-53
2022/06/07 02:20:33;;;;;;;;;;;;;;;17.08;59.47;97886.59;5071016;28;19924;-53
2022/06/07 02:23:23;;;;;;;;;;;;;;;17.08;59.56;97883.06;5075159;28;20356;-51
2022/06/07 02:26:37;;;;;;;;;;;;;;;17.05;59.63;97879.06;5070525;28;20138;-52
2022/06/07 02:29:28;;;;;;;;;;;;;;;17.06;59.50;97880.66;5085823;28;19996;-53
2022/06/07 02:32:19;;;;;;;;;;;;;;;17.09;59.57;97879.94;5072772;28;19969;-53
2022/06/07 02:35:11;;;;;;;;;;;;;;;17.09;59.43;97876.41;5074902;28;20024;-53
2022/06/07 02:38:00;;;;;;;;;;;;;;;17.11;59.41;97879.59;5073430;28;19924;-52
2022/06/07 02:40:49;;;;;;;;;;;;;;;17.12;59.33;97868.25;5065099;28;19930;-53
2022/06/07 02:43:40;;;;;;;;;;;;;;;17.17;59.44;97870.75;5090501;28;19924;-52
2022/06/07 02:46:54;;;;;;;;;;;;;;;17.52;58.63;97862.56;5093596;28;19928;-53
2022/06/07 02:49:45;;;;;;;;;;;;;;;17.22;58.84;97862.22;5076555;28;19924;-53
2022/06/07 02:52:34;;;;;;;;;;;;;;;17.17;58.69;97859.75;5091771;28;20111;-53
2022/06/07 02:55:29;;;;;;;;;;;;;;;17.22;58.79;97864.97;5086240;28;19924;-53
2022/06/07 02:58:25;;;;;;;;;;;;;;;17.18;58.76;97866.03;5074489;28;20592;-53
2022/06/07 03:01:39;;;;;;;;;;;;;;;17.07;58.74;97876.75;5080189;28;19924;-52
2022/06/07 03:04:31;;;;;;;;;;;;;;;17.11;58.70;97874.91;5097294;28;19930;-54
2022/06/07 03:07:21;;;;;;;;;;;;;;;17.09;58.53;97877.19;5093187;28;19950;-53
2022/06/07 03:10:14;;;;;;;;;;;;;;;17.06;58.84;97874.38;5091406;28;20608;-53
2022/06/07 03:13:03;;;;;;;;;;;;;;;17.04;58.63;97877.47;5083764;28;19919;-53
2022/06/07 03:15:52;;;;;;;;;;;;;;;16.98;58.81;97876.94;5092192;28;19958;-53
2022/06/07 03:18:43;;;;;;;;;;;;;;;17.00;59.20;97873.84;5090937;28;19931;-53
2022/06/07 03:21:57;;;;;;;;;;;;;;;16.92;59.09;97870.13;5093129;28;19924;-53
2022/06/07 03:24:49;;;;;;;;;;;;;;;16.93;59.21;97881.88;5079183;28;20276;-52
2022/06/07 03:27:38;;;;;;;;;;;;;;;17.17;59.11;97876.22;5096746;28;20364;-53
2022/06/07 03:30:29;;;;;;;;;;;;;;;17.00;59.33;97877.41;5083962;28;19920;-54
2022/06/07 03:33:18;;;;;;;;;;;;;;;16.94;58.99;97884.31;5096461;28;19927;-52
2022/06/07 03:36:08;;;;;;;;;;;;;;;16.96;58.95;97875.69;5081279;28;19928;-52
2022/06/07 03:39:16;;;;;;;;;;;;;;;16.94;58.84;97869.78;5094774;28;19985;-53
2022/06/07 03:42:18;;;;;;;;;;;;;;;16.98;58.84;97876.94;5085215;28;19920;-53
2022/06/07 03:45:08;;;;;;;;;;;;;;;16.91;58.81;97873.22;5081292;28;19920;-53
2022/06/07 03:48:23;;;;;;;;;;;;;;;16.94;58.07;97872.53;5088639;28;19931;-52
2022/06/07 03:51:39;;;;;;;;;;;;;;;16.95;58.60;97868.63;5075966;28;20179;-53
2022/06/07 03:54:32;;;;;;;;;;;;;;;16.94;58.74;97875.28;5092007;28;19930;-53
2022/06/07 03:57:23;;;;;;;;;;;;;;;16.95;59.03;97874.91;5091953;28;19946;-53
2022/06/07 04:00:17;;;;;;;;;;;;;;;16.92;59.06;97866.59;5082310;28;19923;-53
2022/06/07 04:03:13;;;;;;;;;;;;;;;16.88;58.74;97877.47;5099259;28;20174;-53
2022/06/07 04:06:01;;;;;;;;;;;;;;;16.86;58.80;97881.72;5095954;28;19931;-52
2022/06/07 04:08:53;;;;;;;;;;;;;;;16.84;59.02;97879.34;5094358;28;20364;-49
2022/06/07 04:11:45;;;;;;;;;;;;;;;16.84;59.04;97889.50;5097275;28;19927;-51
2022/06/07 04:14:36;;;;;;;;;;;;;;;16.93;59.53;97885.44;5102790;28;19961;-52
2022/06/07 04:17:26;;;;;;;;;;;;;;;16.85;59.57;97880.94;5085387;28;19990;-53
2022/06/07 04:20:26;;;;;;;;;;;;;;;16.82;59.47;97883.56;5083127;28;19935;-53
2022/06/07 04:23:18;;;;;;;;;;;;;;;16.85;60.72;97874.66;5089261;28;19970;-53
2022/06/07 04:26:08;;;;;;;;;;;;;;;16.80;59.85;97877.66;5096161;28;19972;-53
2022/06/07 04:29:00;;;;;;;;;;;;;;;16.77;59.67;97874.44;5098440;28;19927;-52
2022/06/07 04:32:16;;;;;;;;;;;;;;;16.81;59.60;97881.97;5094550;28;19919;-51
2022/06/07 04:35:09;;;;;;;;;;;;;;;16.83;59.69;97882.41;5085448;28;19931;-52
2022/06/07 04:38:00;;;;;;;;;;;;;;;16.80;59.62;97878.44;5098157;28;20263;-53
2022/06/07 04:40:55;;;;;;;;;;;;;;;16.81;59.47;97887.47;5082817;28;19999;-52
2022/06/07 04:43:45;;;;;;;;;;;;;;;16.85;59.02;97880.13;5095233;28;19935;-52
2022/06/07 04:46:34;;;;;;;;;;;;;;;16.92;59.42;97883.03;5097468;28;19923;-53
2022/06/07 04:49:28;;;;;;;;;;;;;;;16.95;58.96;97882.34;5096519;28;19930;-53
2022/06/07 04:52:17;;;;;;;;;;;;;;;17.02;58.77;97885.25;5083370;28;19963;-52
2022/06/07 04:55:12;;;;;;;;;;;;;;;17.00;58.87;97887.56;5078210;28;19928;-53
2022/06/07 04:58:01;;;;;;;;;;;;;;;16.93;59.01;97892.88;5096981;28;20020;-53
2022/06/07 05:00:50;;;;;;;;;;;;;;;16.90;59.27;97893.59;5081952;28;19919;-53
2022/06/07 05:03:39;;;;;;;;;;;;;;;16.96;59.26;97895.72;5084910;28;20174;-53
2022/06/07 05:06:30;;;;;;;;;;;;;;;16.96;59.02;97889.44;5098160;28;20650;-53
2022/06/07 05:09:35;;;;;;;;;;;;;;;17.00;58.84;97887.56;5084217;28;20402;-53
2022/06/07 05:12:32;;;;;;;;;;;;;;;16.95;58.74;97890.59;5093905;28;20205;-51
2022/06/07 05:15:21;;;;;;;;;;;;;;;16.95;58.79;97885.09;5085480;28;19920;-53
2022/06/07 05:18:21;;;;;;;;;;;;;;;16.94;58.90;97887.03;5100601;27;19919;-52
2022/06/07 05:21:38;;;;;;;;;;;;;;;17.02;59.29;97893.50;5083914;28;19924;-54
2022/06/07 05:24:54;;;;;;;;;;;;;;;16.97;58.50;97891.00;5094806;28;19932;-53
2022/06/07 05:27:49;;;;;;;;;;;;;;;17.10;58.70;97897.19;5098614;28;19920;-53
2022/06/07 05:31:06;;;;;;;;;;;;;;;17.13;57.68;97897.31;5096774;28;20678;-53
2022/06/07 05:34:21;;;;;;;;;;;;;;;17.08;56.71;97900.31;5084289;28;19951;-53
2022/06/07 05:37:16;;;;;;;;;;;;;;;17.12;57.31;97906.69;5073975;28;19924;-54
2022/06/07 05:40:08;;;;;;;;;;;;;;;17.08;56.78;97907.75;5055313;28;19947;-52
2022/06/07 05:42:58;;;;;;;;;;;;;;;17.09;57.18;97907.38;5056664;28;19921;-52
2022/06/07 05:46:00;;;;;;;;;;;;;;;17.05;57.00;97906.53;5065494;28;20224;-53
2022/06/07 05:52:30;;;;;;;;;;;;;;;17.07;57.07;97900.66;5037311;28;19920;-52
2022/06/07 05:55:21;;;;;;;;;;;;;;;17.04;56.58;97904.91;5050705;28;20160;-53
2022/06/07 05:58:10;;;;;;;;;;;;;;;17.02;57.02;97908.00;5059890;28;19924;-52
2022/06/07 06:00:59;;;;;;;;;;;;;;;17.06;56.34;97913.59;5056840;28;19920;-54
2022/06/07 06:03:49;;;;;;;;;;;;;;;17.10;56.37;97909.00;5055415;28;19935;-53
2022/06/07 06:07:08;;;;;;;;;;;;;;;17.09;54.86;97914.84;5073138;28;19925;-52
2022/06/07 06:10:20;;;;;;;;;;;;;;;17.13;56.01;97916.50;5051242;28;19929;-52
2022/06/07 06:13:18;;;;;;;;;;;;;;;17.21;55.20;97912.81;5035754;28;20300;-51
2022/06/07 06:16:07;;;;;;;;;;;;;;;17.52;54.94;97919.41;5054142;28;19950;-53
2022/06/07 06:19:22;;;;;;;;;;;;;;;17.58;54.14;97922.69;5048977;28;20436;-53
2022/06/07 06:22:11;;;;;;;;;;;;;;;17.25;54.65;97918.38;5039751;28;19925;-52
2022/06/07 06:25:06;;;;;;;;;;;;;;;17.15;54.77;97925.22;5039725;28;19925;-48
2022/06/07 06:28:20;;;;;;;;;;;;;;;17.06;54.92;97921.84;5067050;28;20223;-53
2022/06/07 06:34:29;;;;;;;;;;;;;;;17.11;54.97;97918.84;5048479;28;20089;-50
2022/06/07 06:37:21;;;;;;;;;;;;;;;17.16;55.06;97913.06;5049938;28;20018;-51
2022/06/07 06:40:12;;;;;;;;;;;;;;;17.12;55.02;97922.38;5074908;28;19977;-53
2022/06/07 06:43:16;;;;;;;;;;;;;;;17.09;55.04;97923.06;5080332;28;20400;-55
2022/06/07 06:46:39;;;;;;;;;;;;;;;16.99;54.78;97935.34;5071306;28;19997;-55
2022/06/07 06:49:54;;;;;;;;;;;;;;;16.97;54.88;97932.97;5087627;28;19992;-55
2022/06/07 06:52:43;;;;;;;;;;;;;;;16.97;55.09;97935.72;5087207;28;19924;-56
2022/06/07 06:55:33;;;;;;;;;;;;;;;17.11;55.12;97932.56;5078596;28;19927;-52
2022/06/07 06:58:25;;;;;;;;;;;;;;;17.04;54.91;97926.88;5077898;28;20654;-52
2022/06/07 07:01:33;;;;;;;;;;;;;;;17.17;55.44;97930.34;5084694;28;19928;-51
2022/06/07 07:04:26;;;;;;;;;;;;;;;17.27;54.44;97927.84;5091782;28;19999;-51
2022/06/07 07:07:41;;;;;;;;;;;;;;;17.33;54.18;97924.84;5079740;28;19928;-54
2022/06/07 07:10:38;;;;;;;;;;;;;;;17.37;53.81;97925.75;5074484;28;19939;-53
2022/06/07 07:13:29;;;;;;;;;;;;;;;17.47;54.10;97928.75;5079645;28;20061;-52
2022/06/07 07:16:42;;;;;;;;;;;;;;;17.64;54.02;97933.06;5080540;28;19924;-53
2022/06/07 07:19:33;;;;;;;;;;;;;;;17.65;53.49;97933.84;5083828;28;19946;-53
2022/06/07 07:22:29;;;;;;;;;;;;;;;17.79;53.42;97931.47;5096915;28;19927;-52
2022/06/07 07:25:18;;;;;;;;;;;;;;;17.90;52.98;97935.25;5094552;28;19993;-52
2022/06/07 07:28:07;;;;;;;;;;;;;;;17.85;52.53;97935.53;5077731;28;20107;-53
2022/06/07 07:31:00;;;;;;;;;;;;;;;17.89;52.46;97930.88;5090415;28;19924;-53
2022/06/07 07:33:54;;;;;;;;;;;;;;;17.77;52.47;97931.81;5087256;28;19920;-52
2022/06/07 07:36:45;;;;;;;;;;;;;;;17.72;52.42;97928.50;5098760;28;19985;-53
2022/06/07 07:39:39;;;;;;;;;;;;;;;17.64;52.69;97932.25;5098689;28;19951;-53
2022/06/07 07:42:33;;;;;;;;;;;;;;;17.75;52.72;97934.13;5083152;28;19920;-52
2022/06/07 07:45:27;;;;;;;;;;;;;;;17.80;52.16;97935.81;5090230;28;19954;-50
2022/06/07 07:48:19;;;;;;;;;;;;;;;17.83;52.10;97935.06;5082278;28;19973;-52
2022/06/07 07:51:11;;;;;;;;;;;;;;;17.83;52.06;97929.56;5079466;28;20379;-53
2022/06/07 07:54:19;;;;;;;;;;;;;;;17.96;51.40;97924.78;5097534;28;20449;-52
2022/06/07 07:57:08;;;;;;;;;;;;;;;17.84;51.40;97924.88;5100671;28;19920;-52
2022/06/07 08:00:29;;;;;;;;;;;;;;;17.93;51.50;97918.03;5097348;28;19992;-53
2022/06/07 08:03:26;;;;;;;;;;;;;;;17.82;51.18;97922.50;5097841;28;20262;-51
2022/06/07 08:06:31;;;;;;;;;;;;;;;17.81;51.53;97915.41;5096534;28;19919;-53
2022/06/07 08:09:22;;;;;;;;;;;;;;;17.83;51.03;97920.53;5091645;28;20014;-52
2022/06/07 08:12:11;;;;;;;;;;;;;;;17.73;50.65;97919.94;5096803;28;20010;-52
2022/06/07 08:14:59;;;;;;;;;;;;;;;17.77;51.29;97920.03;5102180;28;19920;-53
2022/06/07 08:17:54;;;;;;;;;;;;;;;17.84;50.93;97920.16;5094579;28;19924;-53
2022/06/07 08:20:42;;;;;;;;;;;;;;;18.05;51.01;97925.34;5096038;28;20288;-53
2022/06/07 08:23:31;;;;;;;;;;;;;;;18.17;50.41;97921.69;5097228;28;19924;-53
2022/06/07 08:26:31;;;;;;;;;;;;;;;18.20;50.38;97927.25;5080248;28;20407;-54
2022/06/07 08:29:19;;;;;;;;;;;;;;;18.30;50.40;97932.16;5096760;28;20083;-53
2022/06/07 08:32:08;;;;;;;;;;;;;;;18.22;50.69;97924.94;5094868;28;20314;-53
2022/06/07 08:38:06;;;;;;;;;;;;;;;18.54;49.85;97922.84;5088385;28;20428;-52
2022/06/07 08:40:54;;;;;;;;;;;;;;;18.62;50.09;97918.25;5092540;28;19942;-53
2022/06/07 08:43:45;;;;;;;;;;;;;;;18.52;49.96;97919.63;5096744;28;20142;-53
2022/06/07 08:47:03;;;;;;;;;;;;;;;18.56;49.59;97927.97;5097470;28;19972;-53
2022/06/07 08:49:53;;;;;;;;;;;;;;;18.67;49.22;97920.72;5098863;28;20381;-53
2022/06/07 08:56:45;;;;;;;;;;;;;;;18.82;49.58;97919.84;5096109;28;19923;-53
2022/06/07 08:59:35;;;;;;;;;;;;;;;18.87;48.30;97920.72;5094181;28;20011;-53
2022/06/07 09:02:27;;;;;;;;;;;;;;;18.87;48.30;97921.50;5097047;28;19981;-52
2022/06/07 09:05:17;;;;;;;;;;;;;;;19.03;48.52;97902.13;5095393;28;19928;-54
2022/06/07 09:08:32;;;;;;;;;;;;;;;19.13;48.67;97898.78;5101019;28;19987;-53
2022/06/07 09:14:32;;;;;;;;;;;;;;;19.17;48.15;97902.34;5097927;28;19923;-54
2022/06/07 09:17:23;;;;;;;;;;;;;;;19.02;47.83;97900.53;5093410;28;19920;-53
2022/06/07 09:20:15;;;;;;;;;;;;;;;19.28;47.76;97905.28;5090460;28;20415;-54
2022/06/07 09:23:32;;;;;;;;;;;;;;;19.14;47.95;97907.81;5094752;28;19924;-52
2022/06/07 09:26:24;;;;;;;;;;;;;;;18.98;47.31;97911.50;5097243;28;20030;-53
2022/06/07 09:29:20;;;;;;;;;;;;;;;18.99;47.21;97906.78;5093567;28;19924;-53
2022/06/07 09:32:12;;;;;;;;;;;;;;;19.08;46.92;97897.13;5099206;27;20420;-53
2022/06/07 09:35:03;;;;;;;;;;;;;;;19.29;45.51;97888.41;5094214;28;20007;-54
2022/06/07 09:41:36;;;;;;;;;;;;;;;19.35;46.29;97881.41;5059743;28;19975;-50
2022/06/07 09:44:21;;;;;;;;;;;;;;;19.23;45.38;97881.63;5049835;28;19928;-53
2022/06/07 09:47:11;;;;;;;;;;;;;;;19.22;45.31;97882.75;5059372;28;19931;-54
2022/06/07 09:50:06;;;;;;;;;;;;;;;19.26;45.11;97882.84;5057016;28;19932;-54
2022/06/07 09:53:15;;;;;;;;;;;;;;;19.01;44.78;97872.19;5059889;28;20052;-50
2022/06/07 09:56:08;;;;;;;;;;;;;;;19.23;44.64;97870.63;5049580;28;20081;-53
2022/06/07 09:58:59;;;;;;;;;;;;;;;19.31;43.84;97868.75;5053853;28;19939;-54
2022/06/07 10:01:49;;;;;;;;;;;;;;;19.69;43.81;97867.75;5046928;28;20019;-54
2022/06/07 10:04:39;;;;;;;;;;;;;;;19.50;43.53;97865.13;5055739;28;20328;-53
2022/06/07 10:07:30;;;;;;;;;;;;;;;19.45;43.45;97857.16;5063870;28;20020;-53
2022/06/07 10:10:20;;;;;;;;;;;;;;;19.72;43.65;97856.00;5062120;28;19932;-53
2022/06/07 10:13:38;;;;;;;;;;;;;;;19.85;45.45;97848.28;5060524;28;19920;-55
2022/06/07 10:16:31;;;;;;;;;;;;;;;20.21;45.34;97855.06;5051257;28;20388;-54
2022/06/07 10:19:28;;;;;;;;;;;;;;;20.26;44.61;97849.19;5056095;28;20015;-53
2022/06/07 10:22:20;;;;;;;;;;;;;;;20.26;44.50;97846.44;5061923;28;19947;-54
2022/06/07 10:25:13;;;;;;;;;;;;;;;20.42;44.68;97843.47;5065204;28;19947;-54
2022/06/07 10:28:07;;;;;;;;;;;;;;;20.02;44.50;97846.94;5054829;28;20338;-55
2022/06/07 10:30:57;;;;;;;;;;;;;;;19.99;45.17;97853.22;5059873;28;19993;-52
2022/06/07 10:33:50;;;;;;;;;;;;;;;20.01;44.29;97848.91;5062360;28;19928;-54
2022/06/07 10:36:42;;;;;;;;;;;;;;;19.95;44.39;97849.59;5059589;28;19932;-53
2022/06/07 10:39:43;;;;;;;;;;;;;;;19.85;44.83;97846.31;5076981;28;19920;-55
2022/06/07 10:42:35;;;;;;;;;;;;;;;19.83;44.97;97850.63;5082941;28;19989;-53
2022/06/07 10:48:40;;;;;;;;;;;;;;;19.72;44.58;97844.97;5090052;28;20020;-51
2022/06/07 10:54:41;;;;;;;;;;;;;;;20.02;44.45;97833.13;5079684;28;19920;-52
2022/06/07 10:57:36;;;;;;;;;;;;;;;19.79;43.50;97834.03;5083573;28;20449;-54
2022/06/07 11:00:34;;;;;;;;;;;;;;;19.91;43.62;97826.69;5076675;28;20461;-54
2022/06/07 11:03:26;;;;;;;;;;;;;;;20.10;43.10;97832.06;5081871;28;20253;-54
2022/06/07 11:09:34;;;;;;;;;;;;;;;20.57;42.37;97836.16;5050432;28;20013;-54
2022/06/07 11:12:24;;;;;;;;;;;;;;;20.41;43.00;97834.41;5092008;28;19920;-50
2022/06/07 11:15:15;;;;;;;;;;;;;;;20.57;42.86;97834.19;5085692;28;20349;-52
2022/06/07 11:18:07;;;;;;;;;;;;;;;20.79;42.00;97826.13;5081228;28;20288;-54
2022/06/07 11:21:12;;;;;;;;;;;;;;;20.73;42.23;97825.69;5062002;28;20023;-53
2022/06/07 11:24:08;;;;;;;;;;;;;;;20.41;42.34;97828.88;5079057;28;20023;-54
2022/06/07 11:27:18;;;;;;;;;;;;;;;20.48;42.01;97832.91;5080393;28;19920;-55
2022/06/07 11:30:28;;;;;;;;;;;;;;;20.48;41.83;97830.16;5083044;28;20296;-54
2022/06/07 11:33:42;;;;;;;;;;;;;;;20.20;40.82;97825.88;5086608;28;19931;-54
2022/06/07 11:36:35;;;;;;;;;;;;;;;20.26;41.90;97829.09;5081527;28;19920;-55
2022/06/07 11:39:34;;;;;;;;;;;;;;;20.18;41.03;97835.69;5079929;28;20112;-53
2022/06/07 11:42:33;;;;;;;;;;;;;;;19.96;41.97;97831.88;5061142;28;19927;-50
2022/06/07 11:45:24;;;;;;;;;;;;;;;19.93;42.62;97829.91;5067644;28;19951;-52
2022/06/07 11:48:38;;;;;;;;;;;;;;;19.87;42.51;97827.47;5066870;28;19928;-55
2022/06/07 11:51:27;;;;;;;;;;;;;;;19.80;43.25;97832.06;5058430;28;20023;-54
2022/06/07 11:54:16;;;;;;;;;;;;;;;19.66;43.45;97823.63;5052014;28;20401;-54
2022/06/07 11:57:16;;;;;;;;;;;;;;;19.67;43.64;97819.72;5053004;28;19926;-54
2022/06/07 12:00:21;;;;;;;;;;;;;;;19.80;43.19;97819.09;5057629;28;19921;-52
2022/06/07 12:03:28;;;;;;;;;;;;;;;20.04;43.25;97806.00;5059094;28;19943;-54
2022/06/07 12:06:23;;;;;;;;;;;;;;;20.02;42.66;97805.56;5071920;28;20026;-55
2022/06/07 12:09:12;;;;;;;;;;;;;;;20.03;43.00;97818.22;5060679;28;20011;-54
2022/06/07 12:12:01;;;;;;;;;;;;;;;20.10;43.10;97810.81;5070718;28;20025;-53
2022/06/07 12:14:52;;;;;;;;;;;;;;;20.20;42.81;97814.06;5071646;28;19923;-55
2022/06/07 12:17:51;;;;;;;;;;;;;;;20.19;43.01;97813.28;5070685;28;19946;-55
2022/06/07 12:20:40;;;;;;;;;;;;;;;20.18;42.60;97806.13;5063762;28;19931;-55
2022/06/07 12:23:37;;;;;;;;;;;;;;;19.99;42.32;97803.56;5065202;28;20391;-54
2022/06/07 12:26:27;;;;;;;;;;;;;;;19.85;43.24;97804.97;5062880;28;20308;-55
2022/06/07 12:29:19;;;;;;;;;;;;;;;19.86;43.67;97808.53;5059445;28;19935;-55
2022/06/07 12:32:15;;;;;;;;;;;;;;;19.85;43.36;97804.19;5067772;28;19931;-55
2022/06/07 12:35:06;;;;;;;;;;;;;;;19.78;43.74;97804.91;5064535;28;20023;-54
2022/06/07 12:37:56;;;;;;;;;;;;;;;19.74;43.68;97804.06;5061697;28;20350;-55
2022/06/07 12:40:50;;;;;;;;;;;;;;;19.80;43.52;97801.75;5059345;28;20109;-52
2022/06/07 12:43:45;;;;;;;;;;;;;;;19.81;43.55;97801.38;5073493;28;20315;-52
2022/06/07 12:46:44;;;;;;;;;;;;;;;19.73;43.42;97791.44;5069010;28;19925;-54
2022/06/07 12:49:34;;;;;;;;;;;;;;;19.71;43.04;97788.28;5061885;28;19947;-55
2022/06/07 12:52:25;;;;;;;;;;;;;;;19.71;43.30;97788.28;5062171;28;20397;-50
2022/06/07 12:55:24;;;;;;;;;;;;;;;20.04;42.40;97789.47;5054090;28;20035;-55
2022/06/07 12:58:19;;;;;;;;;;;;;;;19.91;42.14;97786.13;5051797;28;19994;-52
2022/06/07 13:01:19;;;;;;;;;;;;;;;19.81;42.44;97786.78;5056905;28;20285;-55
2022/06/07 13:04:15;;;;;;;;;;;;;;;19.71;42.35;97788.28;5061349;28;19920;-53
2022/06/07 13:07:05;;;;;;;;;;;;;;;19.69;42.48;97790.59;5075594;28;20201;-55
2022/06/07 13:10:14;;;;;;;;;;;;;;;19.65;42.69;97781.47;5069745;28;19932;-52
2022/06/07 13:13:03;;;;;;;;;;;;;;;19.71;42.90;97788.28;5078012;28;19924;-53
2022/06/07 13:15:55;;;;;;;;;;;;;;;19.80;43.10;97786.00;5065546;28;20376;-54
2022/06/07 13:18:56;;;;;;;;;;;;;;;19.72;43.05;97778.84;5064206;28;21988;-53
2022/06/07 13:21:49;;;;;;;;;;;;;;;19.63;43.35;97781.06;5065269;28;19925;-54
2022/06/07 13:24:41;;;;;;;;;;;;;;;19.68;43.44;97780.75;5061190;28;20343;-55
2022/06/07 13:27:40;;;;;;;;;;;;;;;19.70;43.16;97778.41;5058778;28;19976;-53
2022/06/07 13:30:35;;;;;;;;;;;;;;;19.80;43.55;97776.94;5065957;28;19924;-54
2022/06/07 13:36:45;;;;;;;;;;;;;;;19.90;43.45;97773.53;5062727;28;20415;-53
2022/06/07 13:39:34;;;;;;;;;;;;;;;19.95;43.88;97766.88;5077447;28;19939;-54
2022/06/07 13:42:23;;;;;;;;;;;;;;;20.15;44.23;97768.31;5074652;28;20260;-53
2022/06/07 13:45:19;;;;;;;;;;;;;;;20.05;43.74;97757.94;5075187;28;19931;-52
2022/06/07 13:48:12;;;;;;;;;;;;;;;20.09;43.35;97758.78;5070483;28;20214;-53
2022/06/07 13:54:32;;;;;;;;;;;;;;;20.10;43.65;97761.16;5073111;28;20057;-53
2022/06/07 13:57:21;;;;;;;;;;;;;;;20.26;43.11;97751.84;5076418;28;20077;-53
2022/06/07 14:00:11;;;;;;;;;;;;;;;20.22;43.22;97754.56;5073722;28;20020;-55
2022/06/07 14:03:04;;;;;;;;;;;;;;;20.32;42.98;97753.09;5074921;28;19944;-55
2022/06/07 14:05:53;;;;;;;;;;;;;;;20.32;42.97;97762.16;5069661;28;20007;-51
2022/06/07 14:08:42;;;;;;;;;;;;;;;20.51;42.44;97754.91;5080667;28;19963;-56
2022/06/07 14:11:34;;;;;;;;;;;;;;;20.37;42.95;97758.28;5080168;28;20276;-55
2022/06/07 14:14:23;;;;;;;;;;;;;;;20.34;42.95;97757.06;5075822;28;19920;-50
2022/06/07 14:17:13;;;;;;;;;;;;;;;20.43;42.88;97756.75;5076477;28;19920;-54
2022/06/07 14:20:02;;;;;;;;;;;;;;;20.34;43.36;97754.28;5074546;28;19920;-54
2022/06/07 14:22:51;;;;;;;;;;;;;;;20.34;43.48;97751.53;5071461;28;19995;-54
2022/06/07 14:25:40;;;;;;;;;;;;;;;20.33;43.24;97752.72;5072487;28;20388;-53
2022/06/07 14:28:30;;;;;;;;;;;;;;;20.29;43.39;97751.88;5070771;28;19924;-53
2022/06/07 14:31:43;;;;;;;;;;;;;;;20.18;43.79;97745.47;5069838;28;20019;-53
2022/06/07 14:34:33;;;;;;;;;;;;;;;20.31;43.72;97749.56;5073466;28;19920;-53
2022/06/07 14:37:21;;;;;;;;;;;;;;;20.39;43.07;97737.38;5069498;28;20348;-54
2022/06/07 14:40:14;;;;;;;;;;;;;;;20.46;43.06;97749.69;5074282;28;19928;-55
2022/06/07 14:43:02;;;;;;;;;;;;;;;20.65;42.91;97741.19;5072107;28;19919;-54
2022/06/07 14:45:56;;;;;;;;;;;;;;;20.71;42.53;97749.91;5063140;28;19920;-56
2022/06/07 14:48:47;;;;;;;;;;;;;;;20.76;42.41;97742.06;5073791;28;19928;-53
2022/06/07 14:51:37;;;;;;;;;;;;;;;20.73;41.80;97742.84;5076603;28;19928;-55
2022/06/07 14:54:26;;;;;;;;;;;;;;;20.76;41.31;97744.84;5071569;28;20266;-52
2022/06/07 14:57:15;;;;;;;;;;;;;;;20.82;40.97;97750.78;5075733;28;20395;-53
2022/06/07 15:00:06;;;;;;;;;;;;;;;20.67;40.41;97738.88;5078594;28;19920;-54
2022/06/07 15:02:58;;;;;;;;;;;;;;;20.80;39.66;97731.84;5067925;28;19924;-54
2022/06/07 15:05:50;;;;;;;;;;;;;;;21.03;39.72;97731.63;5079088;28;19924;-51
2022/06/07 15:08:44;;;;;;;;;;;;;;;21.28;39.32;97734.53;5077542;28;20296;-54
2022/06/07 15:11:33;;;;;;;;;;;;;;;21.31;39.21;97735.78;5080147;28;20391;-54
2022/06/07 15:14:21;;;;;;;;;;;;;;;21.06;39.42;97738.34;5079945;28;19927;-53
2022/06/07 15:17:10;;;;;;;;;;;;;;;20.80;40.07;97737.38;5073553;28;20272;-52
2022/06/07 15:20:00;;;;;;;;;;;;;;;20.65;40.27;97724.63;5074859;28;20380;-51
2022/06/07 15:22:49;;;;;;;;;;;;;;;20.61;40.58;97727.38;5073930;28;20335;-53
2022/06/07 15:25:38;;;;;;;;;;;;;;;20.58;39.76;97719.06;5071640;28;19927;-54
2022/06/07 15:28:27;;;;;;;;;;;;;;;20.61;40.54;97702.56;5071416;28;19925;-54
2022/06/07 15:31:16;;;;;;;;;;;;;;;20.64;40.49;97710.03;5072182;28;19924;-55
2022/06/07 15:37:20;;;;;;;;;;;;;;;20.72;41.10;97694.34;5069740;28;20284;-54
2022/06/07 15:40:09;;;;;;;;;;;;;;;20.78;40.51;97701.09;5070888;28;19920;-56
2022/06/07 15:42:58;;;;;;;;;;;;;;;20.86;40.77;97699.16;5073135;28;20284;-52
2022/06/07 15:45:48;;;;;;;;;;;;;;;20.82;40.81;97701.09;5068954;28;20077;-54
2022/06/07 15:48:36;;;;;;;;;;;;;;;20.79;40.88;97696.34;5076614;28;20270;-55
2022/06/07 15:51:25;;;;;;;;;;;;;;;20.98;41.47;97692.53;5072641;28;20291;-55
2022/06/07 15:54:15;;;;;;;;;;;;;;;21.21;42.54;97695.84;5082638;28;20384;-56
2022/06/07 15:57:04;;;;;;;;;;;;;;;21.31;41.41;97700.66;5068585;28;20370;-53
2022/06/07 15:59:52;;;;;;;;;;;;;;;21.33;41.45;97698.28;5080073;28;19921;-48
2022/06/07 16:02:41;;;;;;;;;;;;;;;21.34;41.45;97690.78;5074906;28;19924;-53